Forside
METAR-TAF:

METAR-TAF

Lufthavne :

Cooma, Australien

Breddekreds: 36-18-00S, længdekreds: 148-58-24E, højde: 947 m

Aktuelle vejr

Denne rapport blev lavet for 51 minutter siden, kl. 01:00 UTC
Vind 7 kt fra øst, varierende mellem nordøst og østsydøst
Temperatur 18°C
Fugtighed 39%
Tryk 1031 hPa
Sigt 10 km eller mere

METAR: YCOM 240100Z AUTO 09007KT 040V120 9999 // NCD 18/04 Q1031

Tid: 12:51 (01:51 UTC)


TAF: fraværende

Vejrobservationer og prognoser fra mere end 4000 lufthavne (METAR og TAF).

De gule og røde prikker repræsenterer de meteorologiske stationer.

Flyt musen over at se navnet på stationen.

Så klik over at se vejr observationer og prognoser.

At skifte det kort: Klik på de grønne knapper med et sort kors for at zoome ind; på den grønne knap med en bindestreg for at zoome ud; eller på de grønne pile for tilstødende kort.


METAR-TAF: